Time;durP1;ratioP1;P1;durP2;ratioP2;P2;SDS_P1;SDS_P2;PMS_P1;PMS_P2;Temp;Humidity;BMP_temperature;BMP_pressure;BME280_temperature;BME280_humidity;BME280_pressure;Samples;Min_cycle;Max_cycle;Signal;HPM_P1;HPM_P2
2023/02/02 00:00:46;;;;;;;;;;;;;;;-1.29;81.10;98754.09;5001919;28;20409;-66
2023/02/02 00:03:12;;;;;;;;;;;;;;;-1.26;81.24;98752.84;5008477;28;20020;-68
2023/02/02 00:05:37;;;;;;;;;;;;;;;-1.27;81.14;98748.50;5010091;28;19929;-65
2023/02/02 00:08:03;;;;;;;;;;;;;;;-1.27;81.19;98753.03;4994205;28;19975;-65
2023/02/02 00:10:30;;;;;;;;;;;;;;;-1.28;81.06;98752.25;4993641;28;19975;-65
2023/02/02 00:12:56;;;;;;;;;;;;;;;-1.30;81.23;98747.09;5008185;28;20008;-64
2023/02/02 00:15:22;;;;;;;;;;;;;;;-1.26;81.16;98752.00;4989653;28;19929;-65
2023/02/02 00:17:48;;;;;;;;;;;;;;;-1.22;81.01;98750.53;5010183;28;19976;-65
2023/02/02 00:20:14;;;;;;;;;;;;;;;-1.21;81.05;98752.97;4990215;28;19929;-65
2023/02/02 00:22:40;;;;;;;;;;;;;;;-1.21;81.15;98741.44;4984959;28;20480;-64
2023/02/02 00:25:06;;;;;;;;;;;;;;;-1.24;80.72;98747.25;5009962;28;20027;-64
2023/02/02 00:27:33;;;;;;;;;;;;;;;-1.24;80.68;98749.94;5009679;28;19988;-65
2023/02/02 00:29:59;;;;;;;;;;;;;;;-1.22;80.88;98745.16;5009947;28;19976;-66
2023/02/02 00:32:25;;;;;;;;;;;;;;;-1.20;81.00;98743.06;5004716;28;19965;-65
2023/02/02 00:34:50;;;;;;;;;;;;;;;-1.18;80.66;98741.78;5005851;28;20441;-64
2023/02/02 00:37:16;;;;;;;;;;;;;;;-1.17;80.52;98737.25;4993563;28;19929;-64
2023/02/02 00:39:42;;;;;;;;;;;;;;;-1.24;80.01;98744.56;5008633;28;20429;-64
2023/02/02 00:42:09;;;;;;;;;;;;;;;-1.30;80.13;98752.44;4990026;28;19965;-64
2023/02/02 00:47:21;;;;;;;;;;;;;;;-1.30;80.14;98748.97;5004051;28;19981;-65
2023/02/02 00:49:47;;;;;;;;;;;;;;;-1.31;80.22;98750.00;4991595;28;19995;-64
2023/02/02 00:52:13;;;;;;;;;;;;;;;-1.34;79.58;98743.22;4995489;28;20016;-64
2023/02/02 00:54:38;;;;;;;;;;;;;;;-1.41;79.44;98742.44;5006801;28;20131;-64
2023/02/02 00:57:04;;;;;;;;;;;;;;;-1.41;79.68;98742.44;4991782;28;19980;-65
2023/02/02 00:59:30;;;;;;;;;;;;;;;-1.44;78.96;98746.41;5008504;28;19937;-64
2023/02/02 01:01:57;;;;;;;;;;;;;;;-1.48;78.63;98739.88;5005899;28;19937;-64
2023/02/02 01:04:23;;;;;;;;;;;;;;;-1.47;78.61;98748.72;4988179;28;19929;-64
2023/02/02 01:06:49;;;;;;;;;;;;;;;-1.43;77.49;98744.53;4990539;28;19976;-65
2023/02/02 01:09:14;;;;;;;;;;;;;;;-1.45;76.69;98744.78;4975035;28;20140;-64
2023/02/02 01:11:40;;;;;;;;;;;;;;;-1.57;76.21;98746.53;4990492;28;20045;-64
2023/02/02 01:14:07;;;;;;;;;;;;;;;-1.62;75.94;98741.03;5008496;28;19964;-64
2023/02/02 01:16:33;;;;;;;;;;;;;;;-1.62;75.66;98741.84;5003030;28;19933;-66
2023/02/02 01:19:01;;;;;;;;;;;;;;;-1.57;75.53;98750.03;4984642;28;20527;-65
2023/02/02 01:21:27;;;;;;;;;;;;;;;-1.51;75.39;98742.16;4987582;28;20411;-65
2023/02/02 01:23:53;;;;;;;;;;;;;;;-1.51;75.81;98734.91;5004711;28;19933;-65
2023/02/02 01:26:19;;;;;;;;;;;;;;;-1.44;75.88;98741.06;4998915;28;19930;-65
2023/02/02 01:28:45;;;;;;;;;;;;;;;-1.44;76.33;98727.66;5002938;28;19979;-65
2023/02/02 01:31:13;;;;;;;;;;;;;;;-1.45;76.51;98727.84;5005595;28;20351;-65
2023/02/02 01:33:39;;;;;;;;;;;;;;;-1.45;76.86;98728.69;4988178;28;19960;-65
2023/02/02 01:36:08;;;;;;;;;;;;;;;-1.44;77.17;98730.31;5001382;28;19972;-64
2023/02/02 01:38:34;;;;;;;;;;;;;;;-1.45;77.59;98722.50;5004112;28;19945;-65
2023/02/02 01:41:00;;;;;;;;;;;;;;;-1.46;77.93;98726.22;4973091;28;20404;-65
2023/02/02 01:43:27;;;;;;;;;;;;;;;-1.46;78.05;98728.91;5005231;28;20420;-65
2023/02/02 01:45:53;;;;;;;;;;;;;;;-1.53;78.82;98726.28;4990447;28;19936;-65
2023/02/02 01:48:20;;;;;;;;;;;;;;;-1.62;79.38;98727.63;4986776;28;19930;-65
2023/02/02 01:50:48;;;;;;;;;;;;;;;-1.66;79.70;98723.72;4987279;28;20389;-65
2023/02/02 01:53:19;;;;;;;;;;;;;;;-1.69;79.65;98727.69;4986071;28;19957;-64
2023/02/02 01:55:46;;;;;;;;;;;;;;;-1.73;79.87;98727.31;5001850;28;19960;-64
2023/02/02 01:58:14;;;;;;;;;;;;;;;-1.77;79.98;98731.47;4983455;28;19999;-64
2023/02/02 02:00:41;;;;;;;;;;;;;;;-1.76;80.32;98721.56;4985878;28;19937;-64
2023/02/02 02:03:10;;;;;;;;;;;;;;;-1.78;80.40;98721.78;5001507;28;20394;-64
2023/02/02 02:05:40;;;;;;;;;;;;;;;-1.77;80.54;98723.44;5001376;28;20321;-64
2023/02/02 02:08:09;;;;;;;;;;;;;;;-1.71;80.54;98721.72;5002904;28;20028;-64
2023/02/02 02:10:36;;;;;;;;;;;;;;;-1.65;80.45;98728.03;5001423;28;20409;-65
2023/02/02 02:13:03;;;;;;;;;;;;;;;-1.67;79.93;98733.66;5002533;28;20448;-64
2023/02/02 02:18:24;;;;;;;;;;;;;;;-1.72;79.87;98736.16;4989308;28;20020;-64
2023/02/02 02:27:18;;;;;;;;;;;;;;;-1.85;79.15;98734.41;4978114;28;19971;-64
2023/02/02 02:30:00;;;;;;;;;;;;;;;-1.82;79.40;98738.53;5001174;28;19960;-64
2023/02/02 02:32:31;;;;;;;;;;;;;;;-1.81;78.78;98732.94;4982196;28;20424;-65
2023/02/02 02:35:02;;;;;;;;;;;;;;;-1.77;78.51;98741.34;5001500;28;19930;-65
2023/02/02 02:37:33;;;;;;;;;;;;;;;-1.78;78.10;98737.88;5004712;28;20347;-65
2023/02/02 02:40:02;;;;;;;;;;;;;;;-1.79;77.37;98748.81;4969420;28;20402;-65
2023/02/02 02:42:32;;;;;;;;;;;;;;;-1.80;77.06;98736.44;4984774;28;20491;-64
2023/02/02 02:44:59;;;;;;;;;;;;;;;-1.81;77.11;98748.22;4984582;28;19976;-64
2023/02/02 02:47:28;;;;;;;;;;;;;;;-1.83;76.77;98744.94;4984282;28;19929;-65
2023/02/02 02:49:55;;;;;;;;;;;;;;;-1.95;76.42;98751.00;5004760;28;19930;-63
2023/02/02 02:52:21;;;;;;;;;;;;;;;-1.98;76.69;98738.03;4982843;28;19929;-64
2023/02/02 02:54:51;;;;;;;;;;;;;;;-1.95;76.52;98740.28;4985535;28;19937;-64
2023/02/02 02:57:27;;;;;;;;;;;;;;;-2.08;76.45;98726.97;4977294;28;19929;-64
2023/02/02 02:59:58;;;;;;;;;;;;;;;-1.90;75.46;98742.31;5002214;28;19983;-64
2023/02/02 03:02:29;;;;;;;;;;;;;;;-1.90;75.61;98753.81;4964630;28;19934;-67
2023/02/02 03:05:01;;;;;;;;;;;;;;;-1.92;74.70;98744.38;5001438;28;20024;-64
2023/02/02 03:07:31;;;;;;;;;;;;;;;-1.94;74.83;98757.19;5004739;28;20528;-66
2023/02/02 03:09:57;;;;;;;;;;;;;;;-1.94;74.86;98754.50;5002482;28;20032;-64
2023/02/02 03:12:23;;;;;;;;;;;;;;;-1.95;75.20;98750.16;4984663;28;19929;-64
2023/02/02 03:14:48;;;;;;;;;;;;;;;-1.94;75.25;98743.78;5002971;28;19929;-64
2023/02/02 03:17:14;;;;;;;;;;;;;;;-1.92;75.25;98752.44;5004885;28;20385;-65
2023/02/02 03:19:40;;;;;;;;;;;;;;;-1.90;75.57;98743.09;5001937;28;19930;-65
2023/02/02 03:22:07;;;;;;;;;;;;;;;-1.84;76.16;98743.28;4953825;28;19929;-65
2023/02/02 03:24:33;;;;;;;;;;;;;;;-1.81;76.38;98749.00;5001126;28;19936;-65
2023/02/02 03:26:58;;;;;;;;;;;;;;;-1.76;76.24;98756.41;5001024;28;20028;-66
2023/02/02 03:29:24;;;;;;;;;;;;;;;-1.78;77.02;98751.28;4967618;28;19935;-65
2023/02/02 03:31:50;;;;;;;;;;;;;;;-1.80;77.50;98755.22;4988180;28;19929;-65
2023/02/02 03:34:16;;;;;;;;;;;;;;;-1.82;77.99;98752.72;4984764;28;19929;-65
2023/02/02 03:36:42;;;;;;;;;;;;;;;-1.86;78.53;98759.56;4986331;28;20153;-66
2023/02/02 03:39:09;;;;;;;;;;;;;;;-1.86;78.71;98760.41;5005297;28;19929;-66
2023/02/02 03:41:34;;;;;;;;;;;;;;;-1.88;78.70;98759.78;4984938;28;20036;-65
2023/02/02 03:44:00;;;;;;;;;;;;;;;-1.90;78.84;98753.81;4983666;28;20044;-65
2023/02/02 03:46:26;;;;;;;;;;;;;;;-1.91;79.15;98757.56;4985800;28;19933;-66
2023/02/02 03:48:52;;;;;;;;;;;;;;;-1.94;79.53;98758.00;4985527;28;19935;-65
2023/02/02 03:51:18;;;;;;;;;;;;;;;-1.98;79.71;98754.13;5002384;28;19930;-65
2023/02/02 03:53:46;;;;;;;;;;;;;;;-1.98;79.70;98764.00;4984443;28;19929;-66
2023/02/02 03:56:13;;;;;;;;;;;;;;;-1.98;80.00;98764.84;4982746;28;19983;-65
2023/02/02 03:58:39;;;;;;;;;;;;;;;-2.01;80.19;98763.41;4995158;28;19929;-65
2023/02/02 04:01:05;;;;;;;;;;;;;;;-2.00;80.19;98759.69;4986094;28;19936;-65
2023/02/02 04:03:32;;;;;;;;;;;;;;;-1.98;80.39;98769.34;4979733;28;20028;-65
2023/02/02 04:05:57;;;;;;;;;;;;;;;-1.92;80.45;98763.94;4997299;28;20015;-66
2023/02/02 04:08:23;;;;;;;;;;;;;;;-1.86;80.33;98768.44;4999717;28;20258;-65
2023/02/02 04:10:49;;;;;;;;;;;;;;;-1.84;80.22;98768.22;4999915;28;20460;-65
2023/02/02 04:13:16;;;;;;;;;;;;;;;-1.83;80.21;98764.50;5003574;28;19930;-65
2023/02/02 04:15:42;;;;;;;;;;;;;;;-1.88;80.44;98756.31;5001448;28;20219;-65
2023/02/02 04:18:08;;;;;;;;;;;;;;;-1.80;80.32;98765.94;4999852;28;20098;-65
2023/02/02 04:20:33;;;;;;;;;;;;;;;-1.83;80.56;98767.16;5002494;28;19929;-64
2023/02/02 04:22:59;;;;;;;;;;;;;;;-1.84;80.92;98765.53;5000922;28;19976;-65
2023/02/02 04:25:25;;;;;;;;;;;;;;;-1.83;80.69;98761.00;4985427;28;20139;-65
2023/02/02 04:27:51;;;;;;;;;;;;;;;-1.84;80.76;98767.41;4995440;28;19944;-66
2023/02/02 04:30:21;;;;;;;;;;;;;;;-1.84;80.72;98762.06;4968970;28;20286;-65
2023/02/02 04:32:47;;;;;;;;;;;;;;;-1.84;80.97;98762.84;5002887;28;19929;-67
2023/02/02 04:35:13;;;;;;;;;;;;;;;-1.87;81.10;98777.53;4986362;28;19991;-63
2023/02/02 04:37:38;;;;;;;;;;;;;;;-1.91;80.94;98772.81;5000173;28;20306;-64
2023/02/02 04:40:05;;;;;;;;;;;;;;;-2.03;81.06;98767.31;5002147;28;19933;-64
2023/02/02 04:42:31;;;;;;;;;;;;;;;-2.08;81.46;98770.69;4984167;28;20420;-64
2023/02/02 04:44:57;;;;;;;;;;;;;;;-2.10;81.39;98772.75;5003388;28;19976;-63
2023/02/02 04:47:24;;;;;;;;;;;;;;;-2.11;81.65;98772.97;4986016;28;19930;-64
2023/02/02 04:49:50;;;;;;;;;;;;;;;-2.11;81.41;98771.09;5000077;28;19936;-65
2023/02/02 04:52:16;;;;;;;;;;;;;;;-2.12;81.60;98777.47;5002691;28;19929;-64
2023/02/02 04:54:41;;;;;;;;;;;;;;;-2.15;81.58;98778.75;5005115;28;20410;-64
2023/02/02 04:57:07;;;;;;;;;;;;;;;-2.18;81.62;98773.84;5007578;28;20983;-64
2023/02/02 04:59:33;;;;;;;;;;;;;;;-2.18;81.66;98783.72;5006890;28;19936;-63
2023/02/02 05:01:59;;;;;;;;;;;;;;;-2.14;81.75;98777.72;5005301;28;20053;-64
2023/02/02 05:04:26;;;;;;;;;;;;;;;-2.07;81.47;98785.72;5004599;28;19975;-64
2023/02/02 05:06:52;;;;;;;;;;;;;;;-2.08;81.33;98785.91;5002997;28;20044;-64
2023/02/02 05:09:18;;;;;;;;;;;;;;;-2.07;81.32;98782.19;4986725;28;20385;-64
2023/02/02 05:11:44;;;;;;;;;;;;;;;-2.07;81.28;98790.25;4988447;28;20337;-64
2023/02/02 05:14:09;;;;;;;;;;;;;;;-2.19;81.21;98766.81;4983471;28;19929;-64
2023/02/02 05:16:35;;;;;;;;;;;;;;;-2.06;81.14;98787.34;4984132;28;19999;-65
2023/02/02 05:19:01;;;;;;;;;;;;;;;-2.09;81.10;98790.47;4985225;28;20385;-65
2023/02/02 05:21:28;;;;;;;;;;;;;;;-2.10;81.13;98796.88;5003381;28;20405;-64
2023/02/02 05:23:54;;;;;;;;;;;;;;;-2.09;80.99;98789.63;4986316;28;19936;-65
2023/02/02 05:26:21;;;;;;;;;;;;;;;-2.07;81.04;98800.94;4987130;28;19933;-64
2023/02/02 05:28:47;;;;;;;;;;;;;;;-2.01;80.91;98808.94;4981894;28;19933;-64
2023/02/02 05:31:13;;;;;;;;;;;;;;;-2.08;80.48;98797.47;4985321;28;19991;-64
2023/02/02 05:33:39;;;;;;;;;;;;;;;-2.10;80.66;98798.72;5006597;28;20368;-64
2023/02/02 05:36:06;;;;;;;;;;;;;;;-2.09;80.49;98789.63;4988744;28;19930;-65
2023/02/02 05:38:33;;;;;;;;;;;;;;;-2.06;80.55;98794.56;4999165;28;20373;-65
2023/02/02 05:40:58;;;;;;;;;;;;;;;-2.03;80.21;98805.66;4982111;28;19929;-64
2023/02/02 05:43:25;;;;;;;;;;;;;;;-2.07;80.05;98793.75;4984616;28;20032;-64
2023/02/02 05:45:50;;;;;;;;;;;;;;;-2.12;80.02;98792.75;4990037;28;20040;-64
2023/02/02 05:48:16;;;;;;;;;;;;;;;-2.14;80.19;98801.00;4986939;28;20031;-64
2023/02/02 05:50:43;;;;;;;;;;;;;;;-2.12;80.19;98798.91;4984967;28;19929;-65
2023/02/02 05:53:12;;;;;;;;;;;;;;;-2.10;80.21;98796.03;4988848;28;20206;-65
2023/02/02 05:55:39;;;;;;;;;;;;;;;-2.08;79.92;98802.00;4997981;28;20052;-65
2023/02/02 05:58:05;;;;;;;;;;;;;;;-2.09;79.85;98790.47;5003906;28;19945;-65
2023/02/02 06:00:31;;;;;;;;;;;;;;;-2.04;79.74;98804.03;5004202;28;19933;-64
2023/02/02 06:02:57;;;;;;;;;;;;;;;-1.97;79.34;98800.47;4987185;28;19929;-65
2023/02/02 06:05:22;;;;;;;;;;;;;;;-2.02;79.10;98812.66;4996692;28;20435;-65
2023/02/02 06:07:48;;;;;;;;;;;;;;;-2.07;79.07;98804.47;5003852;28;20015;-65
2023/02/02 06:10:14;;;;;;;;;;;;;;;-2.10;79.15;98820.97;5004610;28;20083;-64
2023/02/02 06:12:42;;;;;;;;;;;;;;;-2.09;79.38;98819.94;5003749;28;20353;-65
2023/02/02 06:15:09;;;;;;;;;;;;;;;-2.04;79.07;98816.59;4991650;28;19930;-65
2023/02/02 06:17:34;;;;;;;;;;;;;;;-2.01;79.24;98816.19;4995194;28;20040;-65
2023/02/02 06:20:00;;;;;;;;;;;;;;;-2.01;79.11;98821.53;4977835;28;20024;-65
2023/02/02 06:22:26;;;;;;;;;;;;;;;-2.04;79.01;98820.09;4978383;28;19929;-65
2023/02/02 06:24:52;;;;;;;;;;;;;;;-1.97;79.11;98817.38;4983235;28;19929;-65
2023/02/02 06:27:18;;;;;;;;;;;;;;;-1.91;78.66;98829.09;5002667;28;20397;-65
2023/02/02 06:29:45;;;;;;;;;;;;;;;-1.87;78.58;98830.28;4999214;28;20060;-64
2023/02/02 06:32:11;;;;;;;;;;;;;;;-1.87;78.15;98832.97;5001214;28;19930;-65
2023/02/02 06:34:36;;;;;;;;;;;;;;;-1.90;78.18;98818.13;5003681;28;20329;-65
2023/02/02 06:37:02;;;;;;;;;;;;;;;-1.88;78.23;98821.41;5004525;28;20031;-64
2023/02/02 06:39:28;;;;;;;;;;;;;;;-1.88;78.05;98829.47;5003634;28;20368;-65
2023/02/02 06:41:54;;;;;;;;;;;;;;;-1.85;77.78;98828.22;5009267;28;19929;-65
2023/02/02 06:44:20;;;;;;;;;;;;;;;-1.81;77.64;98821.38;4996303;28;20467;-65
2023/02/02 06:46:47;;;;;;;;;;;;;;;-1.77;77.50;98829.81;5000038;28;19929;-65
2023/02/02 06:49:13;;;;;;;;;;;;;;;-1.83;77.49;98823.44;5009427;28;19983;-64
2023/02/02 06:51:38;;;;;;;;;;;;;;;-1.85;77.49;98825.53;5010659;28;19957;-64
2023/02/02 06:54:04;;;;;;;;;;;;;;;-1.79;77.52;98829.22;5011609;28;19930;-65
2023/02/02 06:56:30;;;;;;;;;;;;;;;-1.69;77.34;98823.34;5012029;28;19960;-65
2023/02/02 06:58:55;;;;;;;;;;;;;;;-1.66;77.16;98823.75;5009359;28;19930;-64
2023/02/02 07:01:21;;;;;;;;;;;;;;;-1.62;77.03;98830.31;5010217;28;20044;-65
2023/02/02 07:03:49;;;;;;;;;;;;;;;-1.61;76.94;98833.81;5010230;28;19929;-65
2023/02/02 07:06:16;;;;;;;;;;;;;;;-1.59;76.93;98837.91;4991040;28;19933;-65
2023/02/02 07:08:42;;;;;;;;;;;;;;;-1.50;76.51;98834.97;5006615;28;19936;-65
2023/02/02 07:11:08;;;;;;;;;;;;;;;-1.64;76.38;98812.78;4993265;28;19930;-69
2023/02/02 07:13:34;;;;;;;;;;;;;;;-1.58;76.54;98834.19;4970934;28;19929;-64
2023/02/02 07:15:59;;;;;;;;;;;;;;;-1.53;76.51;98832.72;4988278;28;19956;-65
2023/02/02 07:18:25;;;;;;;;;;;;;;;-1.46;76.33;98836.16;4991768;28;19930;-65
2023/02/02 07:20:52;;;;;;;;;;;;;;;-1.52;76.19;98837.84;4973487;28;20446;-65
2023/02/02 07:23:18;;;;;;;;;;;;;;;-1.57;76.39;98832.34;4990638;28;19930;-65
2023/02/02 07:25:44;;;;;;;;;;;;;;;-1.55;76.23;98842.84;4988701;28;19937;-64
2023/02/02 07:28:10;;;;;;;;;;;;;;;-1.62;76.42;98833.00;4972331;28;19973;-64
2023/02/02 07:30:35;;;;;;;;;;;;;;;-1.59;76.68;98845.16;4971612;28;19930;-64
2023/02/02 07:33:01;;;;;;;;;;;;;;;-1.44;76.36;98837.59;4990598;28;20388;-65
2023/02/02 07:35:27;;;;;;;;;;;;;;;-1.38;75.79;98841.25;4977629;28;20385;-64
2023/02/02 07:37:54;;;;;;;;;;;;;;;-1.34;75.89;98849.66;4990617;28;19929;-65
2023/02/02 07:40:20;;;;;;;;;;;;;;;-1.38;75.73;98843.94;5008845;28;19929;-65
2023/02/02 07:42:47;;;;;;;;;;;;;;;-1.41;76.14;98849.72;5009066;28;19936;-64
2023/02/02 07:45:13;;;;;;;;;;;;;;;-1.37;76.26;98852.78;5008426;28;20321;-64
2023/02/02 07:47:39;;;;;;;;;;;;;;;-1.38;75.96;98853.84;5008328;28;20012;-64
2023/02/02 07:50:05;;;;;;;;;;;;;;;-1.30;76.20;98857.06;4988183;28;20417;-64
2023/02/02 07:52:30;;;;;;;;;;;;;;;-1.19;75.46;98854.72;4989616;28;20281;-64
2023/02/02 07:54:58;;;;;;;;;;;;;;;-1.27;75.49;98858.50;4973273;28;20364;-64
2023/02/02 07:57:23;;;;;;;;;;;;;;;-1.27;75.40;98852.28;4981653;28;20317;-65
2023/02/02 07:59:49;;;;;;;;;;;;;;;-1.31;75.53;98849.25;4969345;28;19936;-63
2023/02/02 08:02:15;;;;;;;;;;;;;;;-1.32;75.76;98851.09;4971368;28;20341;-64
2023/02/02 08:04:40;;;;;;;;;;;;;;;-1.23;75.34;98851.63;4968500;28;19930;-64
2023/02/02 08:07:06;;;;;;;;;;;;;;;-1.26;75.27;98848.56;4970932;28;19937;-64
2023/02/02 08:09:32;;;;;;;;;;;;;;;-1.23;75.14;98858.88;4969032;28;19962;-63
2023/02/02 08:12:01;;;;;;;;;;;;;;;-1.36;75.36;98852.59;4968299;28;19930;-64
2023/02/02 08:14:27;;;;;;;;;;;;;;;-1.34;75.77;98847.81;4967430;28;20181;-63
2023/02/02 08:16:52;;;;;;;;;;;;;;;-1.38;75.77;98860.03;4968692;28;19937;-64
2023/02/02 08:19:18;;;;;;;;;;;;;;;-1.34;75.76;98853.19;4979356;28;19953;-64
2023/02/02 08:21:44;;;;;;;;;;;;;;;-1.32;75.40;98861.03;4973994;28;19930;-64
2023/02/02 08:24:10;;;;;;;;;;;;;;;-1.37;75.05;98850.94;4982592;28;19936;-66
2023/02/02 08:26:36;;;;;;;;;;;;;;;-1.37;75.14;98842.06;5008935;28;20036;-65
2023/02/02 08:29:05;;;;;;;;;;;;;;;-1.37;75.19;98847.44;4991153;28;19929;-65
2023/02/02 08:31:32;;;;;;;;;;;;;;;-1.37;74.90;98866.22;4991833;28;19976;-65
2023/02/02 08:33:58;;;;;;;;;;;;;;;-1.35;74.88;98856.06;4988581;28;20028;-64
2023/02/02 08:36:24;;;;;;;;;;;;;;;-1.24;75.09;98852.69;4978226;28;20040;-64
2023/02/02 08:38:50;;;;;;;;;;;;;;;-1.13;74.08;98847.66;4978341;28;20017;-65
2023/02/02 08:41:17;;;;;;;;;;;;;;;-1.09;73.92;98848.84;4989746;28;20010;-64
2023/02/02 08:43:43;;;;;;;;;;;;;;;-1.12;73.93;98860.00;4992793;28;19930;-65
2023/02/02 08:46:11;;;;;;;;;;;;;;;-1.17;73.78;98861.50;4991693;28;20509;-66
2023/02/02 08:48:37;;;;;;;;;;;;;;;-1.18;73.50;98854.47;4991499;28;20358;-65
2023/02/02 08:51:04;;;;;;;;;;;;;;;-1.14;73.60;98844.13;4990281;28;20124;-65
2023/02/02 08:53:30;;;;;;;;;;;;;;;-1.05;73.33;98845.50;4993483;28;19937;-64
2023/02/02 08:55:59;;;;;;;;;;;;;;;-0.92;73.14;98839.16;4992636;28;19937;-65
2023/02/02 08:58:25;;;;;;;;;;;;;;;-0.89;72.16;98846.75;4974669;28;19930;-64
2023/02/02 09:00:51;;;;;;;;;;;;;;;-0.95;72.43;98844.97;4970711;28;19937;-65
2023/02/02 09:03:18;;;;;;;;;;;;;;;-0.84;72.23;98846.09;4973846;28;19969;-64
2023/02/02 09:05:43;;;;;;;;;;;;;;;-0.67;71.55;98842.81;4975077;28;19934;-65
2023/02/02 09:08:09;;;;;;;;;;;;;;;-0.49;69.47;98850.03;4971103;28;20443;-65
2023/02/02 09:10:35;;;;;;;;;;;;;;;-0.39;69.33;98847.66;4973000;28;20390;-65
2023/02/02 09:13:01;;;;;;;;;;;;;;;-0.31;68.77;98838.47;4972372;28;20424;-65
2023/02/02 09:15:27;;;;;;;;;;;;;;;-0.42;69.09;98818.53;4973069;28;19930;-65
2023/02/02 09:17:52;;;;;;;;;;;;;;;-0.23;68.48;98837.31;4986363;28;20317;-64
2023/02/02 09:20:19;;;;;;;;;;;;;;;-0.29;68.25;98844.41;4970853;28;19969;-66
2023/02/02 09:22:45;;;;;;;;;;;;;;;-0.29;68.33;98841.75;4973297;28;19972;-65
2023/02/02 09:25:11;;;;;;;;;;;;;;;-0.30;68.32;98842.78;4975076;28;20448;-65
2023/02/02 09:27:37;;;;;;;;;;;;;;;-0.26;68.22;98837.75;4973981;28;20315;-65
2023/02/02 09:30:03;;;;;;;;;;;;;;;-0.23;67.69;98842.69;4971962;28;19956;-65
2023/02/02 09:32:29;;;;;;;;;;;;;;;-0.16;67.37;98841.56;4985785;28;20024;-65
2023/02/02 09:34:55;;;;;;;;;;;;;;;0.04;66.41;98848.53;4985830;28;20025;-65
2023/02/02 09:37:22;;;;;;;;;;;;;;;0.23;65.82;98840.38;4972328;28;19930;-66
2023/02/02 09:39:47;;;;;;;;;;;;;;;0.92;64.25;98839.84;4988378;28;19930;-65
2023/02/02 09:42:19;;;;;;;;;;;;;;;1.49;61.89;98840.25;4970604;28;19929;-64
2023/02/02 09:44:54;;;;;;;;;;;;;;;1.31;62.00;98833.13;4971660;28;19937;-64
2023/02/02 09:47:22;;;;;;;;;;;;;;;0.99;62.56;98832.47;4975780;28;19933;-65
2023/02/02 09:49:53;;;;;;;;;;;;;;;0.82;63.01;98839.63;4977143;28;19938;-65
2023/02/02 09:52:23;;;;;;;;;;;;;;;0.62;64.17;98840.78;4988308;28;19936;-65
2023/02/02 09:54:53;;;;;;;;;;;;;;;0.75;64.14;98838.91;4956921;28;19945;-65
2023/02/02 09:57:21;;;;;;;;;;;;;;;0.55;64.27;98843.59;4972799;28;20372;-65
2023/02/02 09:59:48;;;;;;;;;;;;;;;0.28;64.91;98835.13;5002240;28;19937;-65
2023/02/02 10:02:16;;;;;;;;;;;;;;;0.12;65.71;98836.63;5006814;28;20152;-65
2023/02/02 10:04:44;;;;;;;;;;;;;;;0.14;66.21;98832.63;4972623;28;19933;-65
2023/02/02 10:07:12;;;;;;;;;;;;;;;0.16;66.13;98832.41;4993506;28;20309;-65
2023/02/02 10:09:42;;;;;;;;;;;;;;;0.26;65.98;98832.69;4992972;28;19957;-66
2023/02/02 10:12:16;;;;;;;;;;;;;;;0.25;65.67;98838.28;4971685;28;20329;-65
2023/02/02 10:14:47;;;;;;;;;;;;;;;0.19;64.70;98831.13;4990385;28;19930;-65
2023/02/02 10:17:24;;;;;;;;;;;;;;;0.06;64.51;98826.75;4973716;28;20317;-64
2023/02/02 10:19:53;;;;;;;;;;;;;;;0.04;64.98;98813.56;4971688;28;19929;-65
2023/02/02 10:22:20;;;;;;;;;;;;;;;0.05;64.31;98819.75;4975296;28;19929;-65
2023/02/02 10:24:46;;;;;;;;;;;;;;;0.06;64.75;98824.06;5009446;28;19929;-65
2023/02/02 10:27:15;;;;;;;;;;;;;;;0.16;64.51;98820.81;5010188;28;19951;-65
2023/02/02 10:29:47;;;;;;;;;;;;;;;0.32;64.54;98816.66;4993077;28;19929;-66
2023/02/02 10:32:21;;;;;;;;;;;;;;;0.49;63.88;98817.63;5009857;28;19991;-65
2023/02/02 10:34:53;;;;;;;;;;;;;;;0.43;63.08;98821.25;4991857;28;19930;-64
2023/02/02 10:37:27;;;;;;;;;;;;;;;0.37;63.39;98809.53;4991038;28;19959;-65
2023/02/02 10:40:02;;;;;;;;;;;;;;;0.33;63.77;98821.00;4992441;28;20037;-64
2023/02/02 10:42:34;;;;;;;;;;;;;;;0.40;63.72;98824.41;4991881;28;20396;-65
2023/02/02 10:45:03;;;;;;;;;;;;;;;0.60;63.35;98815.97;4989464;28;20041;-65
2023/02/02 10:47:32;;;;;;;;;;;;;;;0.66;62.25;98814.22;5006613;28;19930;-64
2023/02/02 10:50:02;;;;;;;;;;;;;;;0.73;62.52;98814.94;5008711;28;19936;-65
2023/02/02 10:52:30;;;;;;;;;;;;;;;1.05;61.82;98811.03;4975195;28;19930;-64
2023/02/02 10:54:58;;;;;;;;;;;;;;;1.26;61.13;98810.44;5009400;28;19964;-65
2023/02/02 10:57:29;;;;;;;;;;;;;;;1.34;61.06;98808.41;4991762;28;19930;-66
2023/02/02 11:00:00;;;;;;;;;;;;;;;1.49;60.47;98800.66;4991182;28;19930;-65
2023/02/02 11:02:25;;;;;;;;;;;;;;;1.29;60.43;98809.13;4955760;28;19930;-65
2023/02/02 11:07:35;;;;;;;;;;;;;;;1.17;61.73;98811.03;4990695;28;19940;-65
2023/02/02 11:10:01;;;;;;;;;;;;;;;1.51;61.08;98809.31;4989646;28;20020;-65
2023/02/02 11:12:29;;;;;;;;;;;;;;;1.86;60.11;98804.00;4989793;28;19974;-65
2023/02/02 11:15:00;;;;;;;;;;;;;;;2.18;59.12;98790.81;4989201;28;20365;-65
2023/02/02 11:17:26;;;;;;;;;;;;;;;2.58;57.72;98797.13;4995948;28;20669;-65
2023/02/02 11:19:54;;;;;;;;;;;;;;;2.60;57.53;98802.28;5009327;28;20344;-66
2023/02/02 11:22:32;;;;;;;;;;;;;;;2.76;56.46;98809.53;4960255;28;20023;-65
2023/02/02 11:25:00;;;;;;;;;;;;;;;2.90;56.26;98810.00;5010834;28;19975;-64
2023/02/02 11:27:27;;;;;;;;;;;;;;;3.51;54.85;98811.03;5010124;28;19929;-65
2023/02/02 11:29:53;;;;;;;;;;;;;;;3.38;54.40;98810.38;4973420;28;20235;-65
2023/02/02 11:32:24;;;;;;;;;;;;;;;2.92;55.45;98812.47;4977906;28;19930;-64
2023/02/02 11:35:03;;;;;;;;;;;;;;;2.99;55.29;98813.09;4994060;28;19929;-65
2023/02/02 11:37:30;;;;;;;;;;;;;;;3.22;54.26;98816.66;4991222;28;19929;-65
2023/02/02 11:40:16;;;;;;;;;;;;;;;3.26;53.68;98815.88;5010732;28;19933;-65
2023/02/02 11:42:45;;;;;;;;;;;;;;;3.30;53.58;98821.59;5009299;28;20468;-65
2023/02/02 11:45:15;;;;;;;;;;;;;;;3.65;53.36;98825.81;5007619;28;19977;-65
2023/02/02 11:47:42;;;;;;;;;;;;;;;3.97;52.44;98830.47;4987382;28;19930;-65
2023/02/02 11:50:25;;;;;;;;;;;;;;;3.14;53.40;98827.88;4988637;28;20029;-65
2023/02/02 11:52:51;;;;;;;;;;;;;;;2.08;56.29;98840.03;4988981;28;19941;-65
2023/02/02 11:55:24;;;;;;;;;;;;;;;1.30;58.69;98834.19;4988988;28;19929;-66
2023/02/02 11:58:10;;;;;;;;;;;;;;;0.89;60.63;98839.53;4985136;28;19936;-65
2023/02/02 12:00:44;;;;;;;;;;;;;;;0.61;61.55;98835.66;4955654;28;20435;-64
2023/02/02 12:03:21;;;;;;;;;;;;;;;0.46;62.09;98838.78;4987359;28;20104;-64
2023/02/02 12:05:48;;;;;;;;;;;;;;;0.33;62.79;98840.66;4988649;28;19937;-64
2023/02/02 12:08:14;;;;;;;;;;;;;;;0.27;62.94;98838.88;5001304;28;19929;-65
2023/02/02 12:10:43;;;;;;;;;;;;;;;0.29;63.29;98842.13;4974102;28;19984;-65
2023/02/02 12:13:13;;;;;;;;;;;;;;;0.36;63.29;98831.28;4990259;28;19929;-64
2023/02/02 12:15:45;;;;;;;;;;;;;;;0.39;63.17;98844.25;4998128;28;19930;-66
2023/02/02 12:18:18;;;;;;;;;;;;;;;0.45;63.27;98837.13;4979414;28;20028;-65
2023/02/02 12:20:49;;;;;;;;;;;;;;;0.59;62.87;98827.00;5007984;28;19929;-65
2023/02/02 12:23:22;;;;;;;;;;;;;;;0.73;62.61;98838.34;5008299;28;19929;-64
2023/02/02 12:25:54;;;;;;;;;;;;;;;0.88;61.97;98830.59;5010291;28;20031;-64
2023/02/02 12:28:25;;;;;;;;;;;;;;;0.89;61.60;98834.94;5000896;28;19929;-64
2023/02/02 12:30:52;;;;;;;;;;;;;;;0.78;61.87;98828.50;4971667;28;20401;-64
2023/02/02 12:33:22;;;;;;;;;;;;;;;0.65;62.31;98834.13;4970969;28;20024;-63
2023/02/02 12:36:09;;;;;;;;;;;;;;;0.48;62.64;98831.31;4955054;28;19930;-64
2023/02/02 12:38:43;;;;;;;;;;;;;;;0.34;63.40;98823.47;4972224;28;19933;-64
2023/02/02 12:41:20;;;;;;;;;;;;;;;0.19;63.69;98837.31;4993800;28;19929;-64
2023/02/02 12:43:46;;;;;;;;;;;;;;;0.14;64.32;98832.63;4990126;28;19960;-66
2023/02/02 12:46:20;;;;;;;;;;;;;;;0.03;64.46;98837.97;4986103;28;20424;-63
2023/02/02 12:48:56;;;;;;;;;;;;;;;-0.13;64.95;98839.47;5002257;28;20440;-64
2023/02/02 12:51:30;;;;;;;;;;;;;;;-0.32;65.35;98834.94;5008325;28;20035;-64
2023/02/02 12:54:01;;;;;;;;;;;;;;;-0.39;66.05;98852.19;5008357;28;19933;-63
2023/02/02 12:56:30;;;;;;;;;;;;;;;-0.36;66.22;98841.81;5009503;28;20443;-63
2023/02/02 12:59:00;;;;;;;;;;;;;;;-0.38;66.54;98848.47;4990433;28;20606;-64
2023/02/02 13:01:32;;;;;;;;;;;;;;;-0.40;66.55;98850.56;5006656;28;20400;-63
2023/02/02 13:04:09;;;;;;;;;;;;;;;-0.39;66.42;98849.50;5009565;28;20364;-64
2023/02/02 13:06:48;;;;;;;;;;;;;;;-0.37;66.65;98847.41;5008445;28;19930;-64